sensor_id;sensor_type;location;lat;lon;timestamp;P1;durP1;ratioP1;P2;durP2;ratioP2
72926;SDS011;61071;51.618;19.388;2022-07-29T00:01:22;9.20;;;3.50;;
72926;SDS011;61071;51.618;19.388;2022-07-29T00:03:48;8.65;;;3.35;;
72926;SDS011;61071;51.618;19.388;2022-07-29T00:06:14;10.13;;;3.55;;
72926;SDS011;61071;51.618;19.388;2022-07-29T00:08:41;7.70;;;3.53;;
72926;SDS011;61071;51.618;19.388;2022-07-29T00:11:06;7.25;;;3.47;;
72926;SDS011;61071;51.618;19.388;2022-07-29T00:13:32;11.60;;;3.53;;
72926;SDS011;61071;51.618;19.388;2022-07-29T00:15:58;11.38;;;3.67;;
72926;SDS011;61071;51.618;19.388;2022-07-29T00:18:24;7.78;;;3.90;;
72926;SDS011;61071;51.618;19.388;2022-07-29T00:20:50;14.02;;;3.40;;
72926;SDS011;61071;51.618;19.388;2022-07-29T00:23:16;8.23;;;3.63;;
72926;SDS011;61071;51.618;19.388;2022-07-29T00:25:41;6.68;;;3.05;;
72926;SDS011;61071;51.618;19.388;2022-07-29T00:28:07;8.68;;;3.53;;
72926;SDS011;61071;51.618;19.388;2022-07-29T00:30:33;8.82;;;3.38;;
72926;SDS011;61071;51.618;19.388;2022-07-29T00:32:58;9.00;;;3.33;;
72926;SDS011;61071;51.618;19.388;2022-07-29T00:35:24;7.13;;;3.22;;
72926;SDS011;61071;51.618;19.388;2022-07-29T00:38:09;12.15;;;6.18;;
72926;SDS011;61071;51.618;19.388;2022-07-29T00:40:39;8.60;;;5.07;;
72926;SDS011;61071;51.618;19.388;2022-07-29T00:43:07;9.70;;;4.13;;
72926;SDS011;61071;51.618;19.388;2022-07-29T00:45:32;10.48;;;3.70;;
72926;SDS011;61071;51.618;19.388;2022-07-29T00:47:59;8.13;;;3.75;;
72926;SDS011;61071;51.618;19.388;2022-07-29T00:50:25;6.78;;;3.40;;
72926;SDS011;61071;51.618;19.388;2022-07-29T00:52:51;11.35;;;3.25;;
72926;SDS011;61071;51.618;19.388;2022-07-29T00:55:18;7.40;;;3.47;;
72926;SDS011;61071;51.618;19.388;2022-07-29T00:57:44;8.02;;;4.30;;
72926;SDS011;61071;51.618;19.388;2022-07-29T01:00:18;8.63;;;3.70;;
72926;SDS011;61071;51.618;19.388;2022-07-29T01:02:47;8.85;;;3.60;;
72926;SDS011;61071;51.618;19.388;2022-07-29T01:05:13;6.45;;;3.55;;
72926;SDS011;61071;51.618;19.388;2022-07-29T01:07:42;9.30;;;3.67;;
72926;SDS011;61071;51.618;19.388;2022-07-29T01:10:10;9.13;;;3.95;;
72926;SDS011;61071;51.618;19.388;2022-07-29T01:12:39;7.85;;;3.45;;
72926;SDS011;61071;51.618;19.388;2022-07-29T01:15:08;7.40;;;3.83;;
72926;SDS011;61071;51.618;19.388;2022-07-29T01:20:17;8.45;;;3.30;;
72926;SDS011;61071;51.618;19.388;2022-07-29T01:23:15;15.93;;;4.00;;
72926;SDS011;61071;51.618;19.388;2022-07-29T01:29:04;9.35;;;3.70;;
72926;SDS011;61071;51.618;19.388;2022-07-29T01:31:35;14.68;;;4.00;;
72926;SDS011;61071;51.618;19.388;2022-07-29T01:34:09;11.98;;;3.85;;
72926;SDS011;61071;51.618;19.388;2022-07-29T01:36:57;8.60;;;4.03;;
72926;SDS011;61071;51.618;19.388;2022-07-29T01:39:37;6.93;;;3.83;;
72926;SDS011;61071;51.618;19.388;2022-07-29T01:47:44;11.43;;;3.58;;
72926;SDS011;61071;51.618;19.388;2022-07-29T01:50:14;9.60;;;3.60;;
72926;SDS011;61071;51.618;19.388;2022-07-29T01:52:49;6.55;;;3.58;;
72926;SDS011;61071;51.618;19.388;2022-07-29T01:55:22;8.70;;;4.32;;
72926;SDS011;61071;51.618;19.388;2022-07-29T01:57:54;15.82;;;4.50;;
72926;SDS011;61071;51.618;19.388;2022-07-29T02:00:24;10.15;;;4.45;;
72926;SDS011;61071;51.618;19.388;2022-07-29T02:02:51;10.00;;;4.18;;
72926;SDS011;61071;51.618;19.388;2022-07-29T02:05:20;13.20;;;4.90;;
72926;SDS011;61071;51.618;19.388;2022-07-29T02:07:49;13.40;;;4.47;;
72926;SDS011;61071;51.618;19.388;2022-07-29T02:10:18;8.07;;;4.20;;
72926;SDS011;61071;51.618;19.388;2022-07-29T02:12:48;12.02;;;4.20;;
72926;SDS011;61071;51.618;19.388;2022-07-29T02:15:16;19.42;;;4.53;;
72926;SDS011;61071;51.618;19.388;2022-07-29T02:17:44;8.55;;;3.78;;
72926;SDS011;61071;51.618;19.388;2022-07-29T02:20:16;18.17;;;4.25;;
72926;SDS011;61071;51.618;19.388;2022-07-29T02:22:42;7.25;;;3.78;;
72926;SDS011;61071;51.618;19.388;2022-07-29T02:25:10;15.90;;;4.20;;
72926;SDS011;61071;51.618;19.388;2022-07-29T02:27:38;13.82;;;4.68;;
72926;SDS011;61071;51.618;19.388;2022-07-29T02:30:07;9.52;;;4.10;;
72926;SDS011;61071;51.618;19.388;2022-07-29T02:32:36;8.32;;;4.45;;
72926;SDS011;61071;51.618;19.388;2022-07-29T02:35:05;8.40;;;4.13;;
72926;SDS011;61071;51.618;19.388;2022-07-29T02:37:33;8.68;;;4.07;;
72926;SDS011;61071;51.618;19.388;2022-07-29T02:40:02;9.32;;;3.95;;
72926;SDS011;61071;51.618;19.388;2022-07-29T02:42:30;8.90;;;4.00;;
72926;SDS011;61071;51.618;19.388;2022-07-29T02:44:59;9.65;;;4.03;;
72926;SDS011;61071;51.618;19.388;2022-07-29T02:47:36;12.18;;;4.72;;
72926;SDS011;61071;51.618;19.388;2022-07-29T02:50:20;10.50;;;4.75;;
72926;SDS011;61071;51.618;19.388;2022-07-29T02:53:01;11.52;;;4.35;;
72926;SDS011;61071;51.618;19.388;2022-07-29T02:55:37;10.80;;;4.07;;
72926;SDS011;61071;51.618;19.388;2022-07-29T02:58:38;12.95;;;3.88;;
72926;SDS011;61071;51.618;19.388;2022-07-29T03:01:08;11.88;;;4.22;;
72926;SDS011;61071;51.618;19.388;2022-07-29T03:03:40;8.27;;;3.78;;
72926;SDS011;61071;51.618;19.388;2022-07-29T03:06:10;12.30;;;4.00;;
72926;SDS011;61071;51.618;19.388;2022-07-29T03:08:39;9.55;;;3.95;;
72926;SDS011;61071;51.618;19.388;2022-07-29T03:11:07;10.18;;;5.10;;
72926;SDS011;61071;51.618;19.388;2022-07-29T03:13:34;10.13;;;4.72;;
72926;SDS011;61071;51.618;19.388;2022-07-29T03:16:01;13.52;;;4.32;;
72926;SDS011;61071;51.618;19.388;2022-07-29T03:18:29;9.43;;;4.22;;
72926;SDS011;61071;51.618;19.388;2022-07-29T03:20:56;11.35;;;4.70;;
72926;SDS011;61071;51.618;19.388;2022-07-29T03:23:23;14.73;;;5.18;;
72926;SDS011;61071;51.618;19.388;2022-07-29T03:25:51;9.00;;;4.00;;
72926;SDS011;61071;51.618;19.388;2022-07-29T03:28:17;16.25;;;4.80;;
72926;SDS011;61071;51.618;19.388;2022-07-29T03:30:43;9.95;;;4.57;;
72926;SDS011;61071;51.618;19.388;2022-07-29T03:33:09;15.73;;;4.53;;
72926;SDS011;61071;51.618;19.388;2022-07-29T03:35:34;9.95;;;4.55;;
72926;SDS011;61071;51.618;19.388;2022-07-29T03:38:00;16.08;;;5.13;;
72926;SDS011;61071;51.618;19.388;2022-07-29T03:40:27;11.63;;;3.78;;
72926;SDS011;61071;51.618;19.388;2022-07-29T03:43:11;8.50;;;3.72;;
72926;SDS011;61071;51.618;19.388;2022-07-29T03:45:41;9.85;;;4.00;;
72926;SDS011;61071;51.618;19.388;2022-07-29T03:48:13;12.27;;;5.32;;
72926;SDS011;61071;51.618;19.388;2022-07-29T03:50:42;11.00;;;4.22;;
72926;SDS011;61071;51.618;19.388;2022-07-29T03:53:09;7.88;;;3.42;;
72926;SDS011;61071;51.618;19.388;2022-07-29T03:55:37;10.65;;;3.80;;
72926;SDS011;61071;51.618;19.388;2022-07-29T03:58:10;8.80;;;3.33;;
72926;SDS011;61071;51.618;19.388;2022-07-29T04:00:38;16.48;;;5.05;;
72926;SDS011;61071;51.618;19.388;2022-07-29T04:03:05;25.83;;;5.32;;
72926;SDS011;61071;51.618;19.388;2022-07-29T04:05:31;23.23;;;6.32;;
72926;SDS011;61071;51.618;19.388;2022-07-29T04:07:57;34.72;;;6.57;;
72926;SDS011;61071;51.618;19.388;2022-07-29T04:10:23;19.73;;;6.00;;
72926;SDS011;61071;51.618;19.388;2022-07-29T04:12:49;22.15;;;6.20;;
72926;SDS011;61071;51.618;19.388;2022-07-29T04:15:15;19.20;;;5.47;;
72926;SDS011;61071;51.618;19.388;2022-07-29T04:17:40;24.55;;;5.80;;
72926;SDS011;61071;51.618;19.388;2022-07-29T04:20:06;21.38;;;5.30;;
72926;SDS011;61071;51.618;19.388;2022-07-29T04:22:33;17.27;;;4.88;;
72926;SDS011;61071;51.618;19.388;2022-07-29T04:24:59;16.88;;;5.00;;
72926;SDS011;61071;51.618;19.388;2022-07-29T04:27:25;17.08;;;4.72;;
72926;SDS011;61071;51.618;19.388;2022-07-29T04:29:51;17.60;;;4.70;;
72926;SDS011;61071;51.618;19.388;2022-07-29T04:32:16;9.15;;;3.63;;
72926;SDS011;61071;51.618;19.388;2022-07-29T04:34:42;11.60;;;3.85;;
72926;SDS011;61071;51.618;19.388;2022-07-29T04:37:08;10.18;;;4.47;;
72926;SDS011;61071;51.618;19.388;2022-07-29T04:39:33;10.98;;;3.78;;
72926;SDS011;61071;51.618;19.388;2022-07-29T04:41:59;12.00;;;4.75;;
72926;SDS011;61071;51.618;19.388;2022-07-29T04:44:25;7.88;;;3.80;;
72926;SDS011;61071;51.618;19.388;2022-07-29T04:46:51;15.85;;;4.38;;
72926;SDS011;61071;51.618;19.388;2022-07-29T04:49:17;7.45;;;3.50;;
72926;SDS011;61071;51.618;19.388;2022-07-29T04:51:43;7.57;;;3.50;;
72926;SDS011;61071;51.618;19.388;2022-07-29T04:54:08;10.00;;;3.70;;
72926;SDS011;61071;51.618;19.388;2022-07-29T04:56:34;12.57;;;3.47;;
72926;SDS011;61071;51.618;19.388;2022-07-29T04:59:00;13.43;;;3.45;;
72926;SDS011;61071;51.618;19.388;2022-07-29T05:01:25;8.25;;;3.78;;
72926;SDS011;61071;51.618;19.388;2022-07-29T05:03:51;7.07;;;3.45;;
72926;SDS011;61071;51.618;19.388;2022-07-29T05:06:17;12.18;;;3.42;;
72926;SDS011;61071;51.618;19.388;2022-07-29T05:08:42;9.75;;;3.50;;
72926;SDS011;61071;51.618;19.388;2022-07-29T05:11:08;7.28;;;3.25;;
72926;SDS011;61071;51.618;19.388;2022-07-29T05:13:33;10.48;;;3.75;;
72926;SDS011;61071;51.618;19.388;2022-07-29T05:15:59;8.93;;;3.22;;
72926;SDS011;61071;51.618;19.388;2022-07-29T05:18:25;6.72;;;3.17;;
72926;SDS011;61071;51.618;19.388;2022-07-29T05:20:51;5.60;;;2.47;;
72926;SDS011;61071;51.618;19.388;2022-07-29T05:23:17;11.98;;;3.40;;
72926;SDS011;61071;51.618;19.388;2022-07-29T05:25:42;6.18;;;2.90;;
72926;SDS011;61071;51.618;19.388;2022-07-29T05:28:08;10.65;;;3.58;;
72926;SDS011;61071;51.618;19.388;2022-07-29T05:30:34;6.82;;;2.50;;
72926;SDS011;61071;51.618;19.388;2022-07-29T05:32:59;6.43;;;3.08;;
72926;SDS011;61071;51.618;19.388;2022-07-29T05:35:25;4.40;;;2.47;;
72926;SDS011;61071;51.618;19.388;2022-07-29T05:37:51;5.60;;;2.58;;
72926;SDS011;61071;51.618;19.388;2022-07-29T05:40:17;4.95;;;2.35;;
72926;SDS011;61071;51.618;19.388;2022-07-29T05:42:43;5.25;;;2.63;;
72926;SDS011;61071;51.618;19.388;2022-07-29T05:45:08;15.18;;;2.80;;
72926;SDS011;61071;51.618;19.388;2022-07-29T05:47:35;7.90;;;2.63;;
72926;SDS011;61071;51.618;19.388;2022-07-29T05:50:00;4.40;;;2.30;;
72926;SDS011;61071;51.618;19.388;2022-07-29T05:52:26;4.75;;;2.17;;
72926;SDS011;61071;51.618;19.388;2022-07-29T05:54:52;11.15;;;2.55;;
72926;SDS011;61071;51.618;19.388;2022-07-29T05:57:18;4.07;;;2.10;;
72926;SDS011;61071;51.618;19.388;2022-07-29T05:59:46;4.85;;;2.10;;
72926;SDS011;61071;51.618;19.388;2022-07-29T06:02:13;6.28;;;2.55;;
72926;SDS011;61071;51.618;19.388;2022-07-29T06:04:39;9.18;;;2.28;;
72926;SDS011;61071;51.618;19.388;2022-07-29T06:07:05;7.15;;;2.33;;
72926;SDS011;61071;51.618;19.388;2022-07-29T06:09:31;7.68;;;2.55;;
72926;SDS011;61071;51.618;19.388;2022-07-29T06:11:58;4.68;;;2.25;;
72926;SDS011;61071;51.618;19.388;2022-07-29T06:14:25;4.88;;;2.58;;
72926;SDS011;61071;51.618;19.388;2022-07-29T06:16:54;6.03;;;2.20;;
72926;SDS011;61071;51.618;19.388;2022-07-29T06:19:20;5.60;;;2.08;;
72926;SDS011;61071;51.618;19.388;2022-07-29T06:21:46;4.38;;;1.95;;
72926;SDS011;61071;51.618;19.388;2022-07-29T06:24:13;9.15;;;2.70;;
72926;SDS011;61071;51.618;19.388;2022-07-29T06:26:40;10.45;;;2.83;;
72926;SDS011;61071;51.618;19.388;2022-07-29T06:29:07;8.30;;;2.25;;
72926;SDS011;61071;51.618;19.388;2022-07-29T06:31:33;6.00;;;2.15;;
72926;SDS011;61071;51.618;19.388;2022-07-29T06:33:59;8.23;;;2.03;;
72926;SDS011;61071;51.618;19.388;2022-07-29T06:36:25;10.05;;;2.15;;
72926;SDS011;61071;51.618;19.388;2022-07-29T06:38:51;3.33;;;1.92;;
72926;SDS011;61071;51.618;19.388;2022-07-29T06:41:17;6.70;;;1.70;;
72926;SDS011;61071;51.618;19.388;2022-07-29T06:43:43;8.52;;;2.55;;
72926;SDS011;61071;51.618;19.388;2022-07-29T06:46:14;10.05;;;2.08;;
72926;SDS011;61071;51.618;19.388;2022-07-29T06:48:42;6.97;;;2.40;;
72926;SDS011;61071;51.618;19.388;2022-07-29T06:51:09;5.70;;;2.22;;
72926;SDS011;61071;51.618;19.388;2022-07-29T06:53:39;4.05;;;2.03;;
72926;SDS011;61071;51.618;19.388;2022-07-29T06:56:06;9.70;;;2.40;;
72926;SDS011;61071;51.618;19.388;2022-07-29T06:58:37;12.25;;;2.42;;
72926;SDS011;61071;51.618;19.388;2022-07-29T07:01:04;5.95;;;2.22;;
72926;SDS011;61071;51.618;19.388;2022-07-29T07:03:31;6.32;;;2.20;;
72926;SDS011;61071;51.618;19.388;2022-07-29T07:05:58;7.03;;;1.95;;
72926;SDS011;61071;51.618;19.388;2022-07-29T07:08:24;6.75;;;2.00;;
72926;SDS011;61071;51.618;19.388;2022-07-29T07:10:50;5.68;;;2.05;;
72926;SDS011;61071;51.618;19.388;2022-07-29T07:13:17;5.53;;;1.88;;
72926;SDS011;61071;51.618;19.388;2022-07-29T07:15:45;5.05;;;2.10;;
72926;SDS011;61071;51.618;19.388;2022-07-29T07:18:13;6.80;;;1.73;;
72926;SDS011;61071;51.618;19.388;2022-07-29T07:20:40;5.38;;;1.67;;
72926;SDS011;61071;51.618;19.388;2022-07-29T07:23:06;2.90;;;1.70;;
72926;SDS011;61071;51.618;19.388;2022-07-29T07:25:32;3.00;;;1.40;;
72926;SDS011;61071;51.618;19.388;2022-07-29T07:27:58;8.02;;;1.98;;
72926;SDS011;61071;51.618;19.388;2022-07-29T07:30:24;8.77;;;1.75;;
72926;SDS011;61071;51.618;19.388;2022-07-29T07:32:50;5.82;;;1.65;;
72926;SDS011;61071;51.618;19.388;2022-07-29T07:35:16;6.97;;;1.60;;
72926;SDS011;61071;51.618;19.388;2022-07-29T07:37:42;4.53;;;1.90;;
72926;SDS011;61071;51.618;19.388;2022-07-29T07:40:08;4.85;;;1.80;;
72926;SDS011;61071;51.618;19.388;2022-07-29T07:42:36;8.57;;;1.73;;
72926;SDS011;61071;51.618;19.388;2022-07-29T07:45:03;9.57;;;1.83;;
72926;SDS011;61071;51.618;19.388;2022-07-29T07:47:31;8.27;;;1.88;;
72926;SDS011;61071;51.618;19.388;2022-07-29T07:49:57;9.57;;;1.35;;
72926;SDS011;61071;51.618;19.388;2022-07-29T07:52:23;7.65;;;1.80;;
72926;SDS011;61071;51.618;19.388;2022-07-29T07:54:49;6.13;;;1.63;;
72926;SDS011;61071;51.618;19.388;2022-07-29T07:57:15;7.97;;;1.73;;
72926;SDS011;61071;51.618;19.388;2022-07-29T07:59:41;3.78;;;1.60;;
72926;SDS011;61071;51.618;19.388;2022-07-29T08:02:07;3.47;;;1.40;;
72926;SDS011;61071;51.618;19.388;2022-07-29T08:04:34;2.88;;;1.30;;
72926;SDS011;61071;51.618;19.388;2022-07-29T08:07:00;6.60;;;1.50;;
72926;SDS011;61071;51.618;19.388;2022-07-29T08:09:28;4.18;;;1.60;;
72926;SDS011;61071;51.618;19.388;2022-07-29T08:11:54;9.88;;;1.92;;
72926;SDS011;61071;51.618;19.388;2022-07-29T08:14:20;8.98;;;1.80;;
72926;SDS011;61071;51.618;19.388;2022-07-29T08:16:46;5.38;;;1.75;;
72926;SDS011;61071;51.618;19.388;2022-07-29T08:19:12;7.07;;;1.58;;
72926;SDS011;61071;51.618;19.388;2022-07-29T08:21:38;2.78;;;1.40;;
72926;SDS011;61071;51.618;19.388;2022-07-29T08:24:04;6.10;;;1.80;;
72926;SDS011;61071;51.618;19.388;2022-07-29T08:26:49;3.63;;;1.40;;
72926;SDS011;61071;51.618;19.388;2022-07-29T08:29:15;6.85;;;1.80;;
72926;SDS011;61071;51.618;19.388;2022-07-29T08:31:41;4.70;;;1.55;;
72926;SDS011;61071;51.618;19.388;2022-07-29T08:34:07;9.32;;;1.75;;
72926;SDS011;61071;51.618;19.388;2022-07-29T08:36:33;4.43;;;1.55;;
72926;SDS011;61071;51.618;19.388;2022-07-29T08:38:59;5.97;;;1.23;;
72926;SDS011;61071;51.618;19.388;2022-07-29T08:41:27;14.48;;;2.00;;
72926;SDS011;61071;51.618;19.388;2022-07-29T08:43:52;12.20;;;1.55;;
72926;SDS011;61071;51.618;19.388;2022-07-29T08:46:19;6.70;;;1.63;;
72926;SDS011;61071;51.618;19.388;2022-07-29T08:48:46;5.20;;;1.42;;
72926;SDS011;61071;51.618;19.388;2022-07-29T08:51:18;4.30;;;1.35;;
72926;SDS011;61071;51.618;19.388;2022-07-29T08:53:47;3.15;;;1.42;;
72926;SDS011;61071;51.618;19.388;2022-07-29T08:56:15;3.50;;;1.30;;
72926;SDS011;61071;51.618;19.388;2022-07-29T08:58:43;13.63;;;1.67;;
72926;SDS011;61071;51.618;19.388;2022-07-29T09:01:11;5.50;;;1.65;;
72926;SDS011;61071;51.618;19.388;2022-07-29T09:06:09;4.85;;;1.50;;
72926;SDS011;61071;51.618;19.388;2022-07-29T09:08:39;16.73;;;2.15;;
72926;SDS011;61071;51.618;19.388;2022-07-29T09:11:06;4.50;;;1.30;;
72926;SDS011;61071;51.618;19.388;2022-07-29T09:13:32;5.43;;;2.00;;
72926;SDS011;61071;51.618;19.388;2022-07-29T09:15:59;5.60;;;1.80;;
72926;SDS011;61071;51.618;19.388;2022-07-29T09:18:36;4.32;;;1.50;;
72926;SDS011;61071;51.618;19.388;2022-07-29T09:21:08;4.47;;;1.58;;
72926;SDS011;61071;51.618;19.388;2022-07-29T09:24:06;5.53;;;1.48;;
72926;SDS011;61071;51.618;19.388;2022-07-29T09:26:45;5.25;;;1.75;;
72926;SDS011;61071;51.618;19.388;2022-07-29T09:29:18;4.45;;;1.40;;
72926;SDS011;61071;51.618;19.388;2022-07-29T09:31:49;3.97;;;1.38;;
72926;SDS011;61071;51.618;19.388;2022-07-29T09:34:21;5.50;;;1.45;;
72926;SDS011;61071;51.618;19.388;2022-07-29T09:36:53;4.07;;;1.40;;
72926;SDS011;61071;51.618;19.388;2022-07-29T09:39:30;9.27;;;1.55;;
72926;SDS011;61071;51.618;19.388;2022-07-29T09:42:04;11.93;;;1.65;;
72926;SDS011;61071;51.618;19.388;2022-07-29T09:44:41;4.85;;;1.45;;
72926;SDS011;61071;51.618;19.388;2022-07-29T09:47:10;4.22;;;1.23;;
72926;SDS011;61071;51.618;19.388;2022-07-29T09:49:58;20.08;;;2.13;;
72926;SDS011;61071;51.618;19.388;2022-07-29T09:52:28;17.60;;;2.45;;
72926;SDS011;61071;51.618;19.388;2022-07-29T09:55:04;4.88;;;1.55;;
72926;SDS011;61071;51.618;19.388;2022-07-29T09:57:32;5.40;;;2.17;;
72926;SDS011;61071;51.618;19.388;2022-07-29T09:59:58;1.50;;;1.13;;
72926;SDS011;61071;51.618;19.388;2022-07-29T10:02:31;5.30;;;1.80;;
72926;SDS011;61071;51.618;19.388;2022-07-29T10:05:00;2.80;;;1.30;;
72926;SDS011;61071;51.618;19.388;2022-07-29T10:07:48;4.40;;;1.52;;
72926;SDS011;61071;51.618;19.388;2022-07-29T10:10:20;8.63;;;1.70;;
72926;SDS011;61071;51.618;19.388;2022-07-29T10:12:49;4.13;;;1.33;;
72926;SDS011;61071;51.618;19.388;2022-07-29T10:15:25;23.90;;;2.15;;
72926;SDS011;61071;51.618;19.388;2022-07-29T10:17:57;4.78;;;1.40;;
72926;SDS011;61071;51.618;19.388;2022-07-29T10:20:25;2.38;;;1.30;;
72926;SDS011;61071;51.618;19.388;2022-07-29T10:22:52;5.80;;;1.63;;
72926;SDS011;61071;51.618;19.388;2022-07-29T10:25:20;3.75;;;1.20;;
72926;SDS011;61071;51.618;19.388;2022-07-29T10:27:48;4.53;;;1.20;;
72926;SDS011;61071;51.618;19.388;2022-07-29T10:30:18;8.02;;;1.17;;
72926;SDS011;61071;51.618;19.388;2022-07-29T10:41:20;2.60;;;1.40;;
72926;SDS011;61071;51.618;19.388;2022-07-29T10:43:53;3.92;;;1.45;;
72926;SDS011;61071;51.618;19.388;2022-07-29T10:46:45;8.32;;;1.77;;
72926;SDS011;61071;51.618;19.388;2022-07-29T10:51:59;4.15;;;1.52;;
72926;SDS011;61071;51.618;19.388;2022-07-29T10:54:38;4.97;;;1.55;;
72926;SDS011;61071;51.618;19.388;2022-07-29T11:07:31;8.18;;;1.95;;
72926;SDS011;61071;51.618;19.388;2022-07-29T11:15:03;9.57;;;1.50;;
72926;SDS011;61071;51.618;19.388;2022-07-29T11:23:00;6.05;;;1.38;;
72926;SDS011;61071;51.618;19.388;2022-07-29T11:25:26;8.00;;;1.67;;
72926;SDS011;61071;51.618;19.388;2022-07-29T11:27:52;10.52;;;1.75;;
72926;SDS011;61071;51.618;19.388;2022-07-29T11:30:49;2.97;;;1.30;;
72926;SDS011;61071;51.618;19.388;2022-07-29T11:33:27;5.13;;;1.42;;
72926;SDS011;61071;51.618;19.388;2022-07-29T11:36:07;5.30;;;1.48;;
72926;SDS011;61071;51.618;19.388;2022-07-29T11:38:35;9.00;;;1.70;;
72926;SDS011;61071;51.618;19.388;2022-07-29T11:43:49;3.50;;;1.42;;
72926;SDS011;61071;51.618;19.388;2022-07-29T11:49:21;4.90;;;1.63;;
72926;SDS011;61071;51.618;19.388;2022-07-29T11:56:59;3.20;;;1.40;;
72926;SDS011;61071;51.618;19.388;2022-07-29T11:59:25;5.43;;;1.77;;
72926;SDS011;61071;51.618;19.388;2022-07-29T12:01:55;4.00;;;1.60;;
72926;SDS011;61071;51.618;19.388;2022-07-29T12:04:23;5.43;;;1.98;;
72926;SDS011;61071;51.618;19.388;2022-07-29T12:06:51;3.22;;;1.48;;
72926;SDS011;61071;51.618;19.388;2022-07-29T12:09:19;10.75;;;1.77;;
72926;SDS011;61071;51.618;19.388;2022-07-29T12:11:46;8.18;;;1.77;;
72926;SDS011;61071;51.618;19.388;2022-07-29T12:16:55;6.15;;;1.83;;
72926;SDS011;61071;51.618;19.388;2022-07-29T12:19:22;4.35;;;1.58;;
72926;SDS011;61071;51.618;19.388;2022-07-29T12:21:49;3.78;;;1.65;;
72926;SDS011;61071;51.618;19.388;2022-07-29T12:24:17;5.07;;;1.55;;
72926;SDS011;61071;51.618;19.388;2022-07-29T12:26:50;4.57;;;1.40;;
72926;SDS011;61071;51.618;19.388;2022-07-29T12:29:21;3.38;;;1.40;;
72926;SDS011;61071;51.618;19.388;2022-07-29T12:31:51;3.05;;;1.40;;
72926;SDS011;61071;51.618;19.388;2022-07-29T12:34:19;3.63;;;1.60;;
72926;SDS011;61071;51.618;19.388;2022-07-29T12:36:51;4.18;;;1.60;;
72926;SDS011;61071;51.618;19.388;2022-07-29T12:39:17;3.97;;;1.58;;
72926;SDS011;61071;51.618;19.388;2022-07-29T12:41:44;5.03;;;1.48;;
72926;SDS011;61071;51.618;19.388;2022-07-29T12:44:10;4.45;;;1.50;;
72926;SDS011;61071;51.618;19.388;2022-07-29T12:46:37;4.32;;;1.60;;
72926;SDS011;61071;51.618;19.388;2022-07-29T12:49:03;3.40;;;1.58;;
72926;SDS011;61071;51.618;19.388;2022-07-29T12:54:11;6.57;;;1.70;;
72926;SDS011;61071;51.618;19.388;2022-07-29T12:56:43;7.43;;;1.60;;
72926;SDS011;61071;51.618;19.388;2022-07-29T13:01:44;3.95;;;1.45;;
72926;SDS011;61071;51.618;19.388;2022-07-29T13:04:34;2.58;;;1.50;;
72926;SDS011;61071;51.618;19.388;2022-07-29T13:07:07;3.88;;;1.40;;
72926;SDS011;61071;51.618;19.388;2022-07-29T13:09:38;9.20;;;1.70;;
72926;SDS011;61071;51.618;19.388;2022-07-29T13:12:11;5.20;;;1.90;;
72926;SDS011;61071;51.618;19.388;2022-07-29T13:14:39;2.60;;;1.35;;
72926;SDS011;61071;51.618;19.388;2022-07-29T13:20:05;2.85;;;1.48;;
72926;SDS011;61071;51.618;19.388;2022-07-29T13:22:37;4.80;;;1.30;;
72926;SDS011;61071;51.618;19.388;2022-07-29T13:25:05;7.13;;;1.60;;
72926;SDS011;61071;51.618;19.388;2022-07-29T13:27:33;5.35;;;1.50;;
72926;SDS011;61071;51.618;19.388;2022-07-29T13:30:03;4.22;;;1.55;;
72926;SDS011;61071;51.618;19.388;2022-07-29T13:32:32;5.10;;;1.70;;
72926;SDS011;61071;51.618;19.388;2022-07-29T13:35:05;3.78;;;1.20;;
72926;SDS011;61071;51.618;19.388;2022-07-29T13:37:33;5.18;;;1.75;;
72926;SDS011;61071;51.618;19.388;2022-07-29T13:40:03;6.82;;;1.55;;
72926;SDS011;61071;51.618;19.388;2022-07-29T13:45:00;2.72;;;1.20;;
72926;SDS011;61071;51.618;19.388;2022-07-29T13:47:26;4.43;;;1.98;;
72926;SDS011;61071;51.618;19.388;2022-07-29T13:49:53;12.15;;;1.60;;
72926;SDS011;61071;51.618;19.388;2022-07-29T13:52:20;4.43;;;1.58;;
72926;SDS011;61071;51.618;19.388;2022-07-29T13:54:46;5.43;;;1.45;;
72926;SDS011;61071;51.618;19.388;2022-07-29T13:57:12;6.78;;;1.52;;
72926;SDS011;61071;51.618;19.388;2022-07-29T13:59:39;6.20;;;1.95;;
72926;SDS011;61071;51.618;19.388;2022-07-29T14:02:10;11.10;;;1.95;;
72926;SDS011;61071;51.618;19.388;2022-07-29T14:04:37;6.90;;;1.52;;
72926;SDS011;61071;51.618;19.388;2022-07-29T14:07:04;2.80;;;1.60;;
72926;SDS011;61071;51.618;19.388;2022-07-29T14:09:31;3.05;;;1.80;;
72926;SDS011;61071;51.618;19.388;2022-07-29T14:11:56;6.47;;;1.60;;
72926;SDS011;61071;51.618;19.388;2022-07-29T14:14:22;6.00;;;1.83;;
72926;SDS011;61071;51.618;19.388;2022-07-29T14:16:48;7.05;;;1.75;;
72926;SDS011;61071;51.618;19.388;2022-07-29T14:19:14;6.38;;;2.00;;
72926;SDS011;61071;51.618;19.388;2022-07-29T14:21:39;7.07;;;1.45;;
72926;SDS011;61071;51.618;19.388;2022-07-29T14:24:05;3.05;;;1.65;;
72926;SDS011;61071;51.618;19.388;2022-07-29T14:26:31;3.40;;;1.60;;
72926;SDS011;61071;51.618;19.388;2022-07-29T14:28:57;7.32;;;1.63;;
72926;SDS011;61071;51.618;19.388;2022-07-29T14:31:23;5.15;;;2.03;;
72926;SDS011;61071;51.618;19.388;2022-07-29T14:33:49;2.08;;;1.30;;
72926;SDS011;61071;51.618;19.388;2022-07-29T14:36:15;4.43;;;1.67;;
72926;SDS011;61071;51.618;19.388;2022-07-29T14:38:40;2.70;;;1.40;;
72926;SDS011;61071;51.618;19.388;2022-07-29T14:41:07;3.15;;;1.70;;
72926;SDS011;61071;51.618;19.388;2022-07-29T14:43:33;4.03;;;1.60;;
72926;SDS011;61071;51.618;19.388;2022-07-29T14:46:00;7.63;;;1.40;;
72926;SDS011;61071;51.618;19.388;2022-07-29T14:48:26;8.73;;;1.85;;
72926;SDS011;61071;51.618;19.388;2022-07-29T14:50:52;8.23;;;1.58;;
72926;SDS011;61071;51.618;19.388;2022-07-29T14:53:19;5.05;;;1.70;;
72926;SDS011;61071;51.618;19.388;2022-07-29T14:55:45;6.97;;;2.22;;
72926;SDS011;61071;51.618;19.388;2022-07-29T14:58:11;5.63;;;1.80;;
72926;SDS011;61071;51.618;19.388;2022-07-29T15:00:36;6.13;;;2.20;;
72926;SDS011;61071;51.618;19.388;2022-07-29T15:03:03;5.90;;;1.60;;
72926;SDS011;61071;51.618;19.388;2022-07-29T15:05:30;4.22;;;1.63;;
72926;SDS011;61071;51.618;19.388;2022-07-29T15:07:57;3.17;;;1.65;;
72926;SDS011;61071;51.618;19.388;2022-07-29T15:10:24;3.28;;;1.52;;
72926;SDS011;61071;51.618;19.388;2022-07-29T15:12:54;3.95;;;1.70;;
72926;SDS011;61071;51.618;19.388;2022-07-29T15:15:20;4.63;;;1.58;;
72926;SDS011;61071;51.618;19.388;2022-07-29T15:17:46;4.50;;;1.45;;
72926;SDS011;61071;51.618;19.388;2022-07-29T15:20:13;5.85;;;2.05;;
72926;SDS011;61071;51.618;19.388;2022-07-29T15:22:39;7.93;;;2.10;;
72926;SDS011;61071;51.618;19.388;2022-07-29T15:25:07;3.45;;;1.42;;
72926;SDS011;61071;51.618;19.388;2022-07-29T15:27:33;10.15;;;1.67;;
72926;SDS011;61071;51.618;19.388;2022-07-29T15:29:59;3.38;;;1.60;;
72926;SDS011;61071;51.618;19.388;2022-07-29T15:32:25;3.92;;;1.38;;
72926;SDS011;61071;51.618;19.388;2022-07-29T15:34:51;5.00;;;1.25;;
72926;SDS011;61071;51.618;19.388;2022-07-29T15:37:17;5.45;;;1.40;;
72926;SDS011;61071;51.618;19.388;2022-07-29T15:39:42;8.00;;;1.40;;
72926;SDS011;61071;51.618;19.388;2022-07-29T15:42:08;5.00;;;1.40;;
72926;SDS011;61071;51.618;19.388;2022-07-29T15:44:34;5.50;;;1.42;;
72926;SDS011;61071;51.618;19.388;2022-07-29T15:46:59;3.65;;;1.60;;
72926;SDS011;61071;51.618;19.388;2022-07-29T15:49:28;9.20;;;1.77;;